Time;durP1;ratioP1;P1;durP2;ratioP2;P2;SDS_P1;SDS_P2;PMS_P1;PMS_P2;Temp;Humidity;BMP_temperature;BMP_pressure;BME280_temperature;BME280_humidity;BME280_pressure;Samples;Min_cycle;Max_cycle;Signal;HPM_P1;HPM_P2
2023/08/28 00:01:58;;;;;;;4.07;1.33;;;19.10;99.90;;;;;;4993549;28;20034;-70
2023/08/28 00:04:24;;;;;;;4.45;1.67;;;19.10;99.90;;;;;;4994320;28;20027;-70
2023/08/28 00:06:51;;;;;;;4.03;1.55;;;19.10;99.90;;;;;;4994620;28;20023;-69
2023/08/28 00:09:17;;;;;;;3.20;1.38;;;19.10;99.90;;;;;;4994413;28;20041;-69
2023/08/28 00:11:43;;;;;;;8.43;1.38;;;19.00;99.90;;;;;;4994525;28;20031;-70
2023/08/28 00:14:08;;;;;;;2.38;1.30;;;19.00;99.90;;;;;;4994368;28;20085;-70
2023/08/28 00:16:34;;;;;;;2.92;1.40;;;19.00;99.90;;;;;;4994464;28;20022;-70
2023/08/28 00:18:59;;;;;;;3.35;1.60;;;19.00;99.90;;;;;;4993912;28;20480;-70
2023/08/28 00:21:25;;;;;;;4.82;1.38;;;19.00;99.90;;;;;;4994086;28;20026;-70
2023/08/28 00:23:50;;;;;;;2.60;1.13;;;19.00;99.90;;;;;;4994369;28;20026;-70
2023/08/28 00:26:16;;;;;;;2.55;1.50;;;18.90;99.90;;;;;;4994067;28;20026;-70
2023/08/28 00:28:42;;;;;;;3.35;1.73;;;18.90;99.90;;;;;;4994319;28;20034;-70
2023/08/28 00:31:07;;;;;;;6.28;2.20;;;18.90;99.90;;;;;;4994281;28;20387;-69
2023/08/28 00:33:33;;;;;;;4.28;1.90;;;18.90;99.90;;;;;;4994145;28;20108;-70
2023/08/28 00:35:59;;;;;;;4.10;1.45;;;18.90;99.90;;;;;;4994164;28;20030;-70
2023/08/28 00:38:24;;;;;;;3.15;1.60;;;18.90;99.90;;;;;;4994043;28;20018;-70
2023/08/28 00:40:50;;;;;;;2.95;1.73;;;18.90;99.90;;;;;;4994362;28;20037;-71
2023/08/28 00:43:16;;;;;;;3.88;1.50;;;18.80;99.90;;;;;;4992668;28;20026;-70
2023/08/28 00:45:42;;;;;;;2.85;1.95;;;18.90;99.90;;;;;;4994162;28;20113;-69
2023/08/28 00:48:10;;;;;;;4.72;1.67;;;18.90;99.90;;;;;;4993790;28;20040;-69
2023/08/28 00:50:37;;;;;;;3.92;2.08;;;18.80;99.90;;;;;;4994110;28;20029;-69
2023/08/28 00:53:03;;;;;;;6.20;1.80;;;18.80;99.90;;;;;;4994144;28;20348;-69
2023/08/28 00:55:32;;;;;;;3.33;1.50;;;18.80;99.90;;;;;;4993522;28;20019;-68
2023/08/28 00:57:57;;;;;;;3.85;2.05;;;18.80;99.90;;;;;;4993922;28;20033;-70
2023/08/28 01:00:23;;;;;;;4.82;1.88;;;18.80;99.90;;;;;;4993607;28;20022;-70
2023/08/28 01:02:49;;;;;;;3.13;2.00;;;18.70;99.90;;;;;;4993942;28;20054;-71
2023/08/28 01:05:15;;;;;;;3.35;1.70;;;18.70;99.90;;;;;;4993911;28;20023;-70
2023/08/28 01:07:53;;;;;;;3.50;1.90;;;18.70;99.90;;;;;;4993875;28;20030;-70
2023/08/28 01:10:28;;;;;;;5.90;1.92;;;18.80;99.90;;;;;;4993301;28;20080;-69
2023/08/28 01:12:57;;;;;;;4.15;2.17;;;18.80;99.90;;;;;;4993768;28;20029;-70
2023/08/28 01:15:24;;;;;;;5.50;2.58;;;18.70;99.90;;;;;;4992320;28;20026;-70
2023/08/28 01:17:58;;;;;;;3.72;2.85;;;18.70;99.90;;;;;;4999175;28;20112;-70
2023/08/28 01:20:26;;;;;;;4.03;2.42;;;18.70;99.90;;;;;;4991785;28;20041;-70
2023/08/28 01:22:59;;;;;;;5.55;2.38;;;18.70;99.90;;;;;;4991176;28;20031;-70
2023/08/28 01:25:29;;;;;;;3.35;2.60;;;18.70;99.90;;;;;;4991152;28;20034;-71
2023/08/28 01:27:56;;;;;;;5.22;2.40;;;18.70;99.90;;;;;;4993398;28;20400;-70
2023/08/28 01:30:22;;;;;;;5.30;2.67;;;18.70;99.90;;;;;;4993664;28;20037;-69
2023/08/28 01:32:48;;;;;;;5.45;2.72;;;18.70;99.90;;;;;;4997437;28;20030;-71
2023/08/28 01:35:26;;;;;;;4.50;2.45;;;18.70;99.90;;;;;;4997396;28;20026;-70
2023/08/28 01:38:12;;;;;;;4.63;2.58;;;18.70;99.90;;;;;;4997544;28;20482;-70
2023/08/28 01:40:59;;;;;;;6.85;2.75;;;18.70;99.90;;;;;;4995626;28;20037;-70
2023/08/28 01:43:29;;;;;;;2.88;2.45;;;18.70;99.90;;;;;;4997316;28;20053;-70
2023/08/28 01:45:55;;;;;;;4.05;2.45;;;18.70;99.90;;;;;;4997190;28;20052;-70
2023/08/28 01:48:20;;;;;;;5.93;2.72;;;18.70;99.90;;;;;;4997072;28;20042;-70
2023/08/28 01:50:46;;;;;;;3.60;2.83;;;18.70;99.90;;;;;;4997190;28;20476;-69
2023/08/28 01:53:12;;;;;;;5.00;2.75;;;18.70;99.90;;;;;;4997126;28;20058;-70
2023/08/28 01:56:06;;;;;;;5.40;2.88;;;18.70;99.90;;;;;;4997035;28;20120;-70
2023/08/28 01:58:34;;;;;;;6.18;3.10;;;18.70;99.90;;;;;;4996991;28;20097;-69
2023/08/28 02:00:59;;;;;;;3.25;2.42;;;18.70;99.90;;;;;;4996938;28;20027;-70
2023/08/28 02:03:25;;;;;;;4.13;2.80;;;18.70;99.90;;;;;;4997258;28;20037;-71
2023/08/28 02:05:51;;;;;;;3.42;2.30;;;18.70;99.90;;;;;;4996935;28;20105;-70
2023/08/28 02:08:16;;;;;;;3.45;2.75;;;18.60;99.90;;;;;;4995292;28;20503;-70
2023/08/28 02:10:42;;;;;;;5.47;3.05;;;18.70;99.90;;;;;;4996870;28;20058;-69
2023/08/28 02:13:07;;;;;;;4.25;2.75;;;18.60;99.90;;;;;;4996719;28;20027;-70
2023/08/28 02:15:33;;;;;;;5.18;3.38;;;18.70;99.90;;;;;;4996711;28;20038;-69
2023/08/28 02:17:58;;;;;;;3.10;2.72;;;18.60;99.90;;;;;;4996566;28;20034;-70
2023/08/28 02:20:24;;;;;;;3.60;2.75;;;18.50;99.90;;;;;;4996467;28;20031;-69
2023/08/28 02:22:49;;;;;;;3.83;2.75;;;18.60;99.90;;;;;;4992247;28;20026;-69
2023/08/28 02:25:20;;;;;;;6.47;3.25;;;18.60;99.90;;;;;;4996443;28;20534;-70
2023/08/28 02:27:46;;;;;;;4.25;3.30;;;18.50;99.90;;;;;;4996414;28;20029;-69
2023/08/28 02:30:12;;;;;;;4.35;2.83;;;18.50;99.90;;;;;;4996385;28;20113;-70
2023/08/28 02:32:37;;;;;;;6.07;3.63;;;18.50;99.90;;;;;;4994956;28;20380;-69
2023/08/28 02:35:03;;;;;;;3.67;3.17;;;18.50;99.90;;;;;;4995629;28;20101;-70
2023/08/28 02:37:29;;;;;;;3.80;2.95;;;18.50;99.90;;;;;;4994938;28;20022;-70
2023/08/28 02:39:55;;;;;;;3.50;2.83;;;18.50;99.90;;;;;;4995393;28;20029;-69
2023/08/28 02:42:20;;;;;;;4.65;3.20;;;18.50;99.90;;;;;;4994711;28;20125;-70
2023/08/28 02:44:46;;;;;;;4.50;3.75;;;18.50;99.90;;;;;;4995091;28;20487;-69
2023/08/28 02:47:11;;;;;;;3.60;3.25;;;18.50;99.90;;;;;;4995869;28;20128;-70
2023/08/28 02:49:37;;;;;;;4.20;3.42;;;18.50;99.90;;;;;;4996084;28;20074;-69
2023/08/28 02:52:03;;;;;;;4.55;2.85;;;18.50;99.90;;;;;;4995238;28;20635;-70
2023/08/28 02:54:28;;;;;;;3.85;3.40;;;18.50;99.90;;;;;;4995807;28;20037;-70
2023/08/28 02:56:54;;;;;;;5.72;3.28;;;18.50;99.90;;;;;;4995922;28;20019;-69
2023/08/28 02:59:19;;;;;;;4.25;3.20;;;18.50;99.90;;;;;;4996050;28;20026;-69
2023/08/28 03:01:45;;;;;;;5.20;2.78;;;18.40;99.90;;;;;;4995945;28;20028;-70
2023/08/28 03:04:10;;;;;;;4.47;3.40;;;18.50;99.90;;;;;;4995843;28;20042;-70
2023/08/28 03:06:37;;;;;;;6.60;2.88;;;18.50;99.90;;;;;;4995658;28;20026;-70
2023/08/28 03:09:04;;;;;;;5.28;3.70;;;18.50;99.90;;;;;;4995583;28;20127;-70
2023/08/28 03:11:29;;;;;;;6.05;3.20;;;18.40;99.90;;;;;;4995554;28;20045;-70
2023/08/28 03:13:55;;;;;;;6.95;3.55;;;18.50;99.90;;;;;;4994469;28;20026;-69
2023/08/28 03:16:21;;;;;;;6.97;3.95;;;18.40;99.90;;;;;;4995335;28;20037;-70
2023/08/28 03:18:47;;;;;;;8.75;3.38;;;18.50;99.90;;;;;;4995578;28;20088;-69
2023/08/28 03:21:12;;;;;;;4.70;3.58;;;18.40;99.90;;;;;;4995313;28;20097;-69
2023/08/28 03:23:38;;;;;;;5.40;3.58;;;18.40;99.90;;;;;;4995551;28;20383;-70
2023/08/28 03:26:04;;;;;;;3.75;3.28;;;18.40;99.90;;;;;;4994299;28;20022;-69
2023/08/28 03:28:30;;;;;;;7.30;4.03;;;18.40;99.90;;;;;;4995257;28;20030;-71
2023/08/28 03:30:59;;;;;;;5.80;3.67;;;18.40;99.90;;;;;;4995643;28;20487;-70
2023/08/28 03:33:25;;;;;;;6.90;3.55;;;18.30;99.90;;;;;;4995514;28;20026;-70
2023/08/28 03:35:51;;;;;;;5.88;4.00;;;18.40;99.90;;;;;;4995165;28;20018;-70
2023/08/28 03:38:17;;;;;;;5.28;3.90;;;18.40;99.90;;;;;;4995052;28;20088;-69
2023/08/28 03:40:44;;;;;;;3.35;3.10;;;18.40;99.90;;;;;;4995332;28;20379;-70
2023/08/28 03:43:09;;;;;;;4.60;3.47;;;18.40;99.90;;;;;;4995175;28;20038;-70
2023/08/28 03:45:35;;;;;;;4.93;3.35;;;18.30;99.90;;;;;;4995236;28;20030;-69
2023/08/28 03:48:01;;;;;;;5.47;3.65;;;18.30;99.90;;;;;;4994877;28;20034;-69
2023/08/28 03:50:29;;;;;;;7.88;4.07;;;18.40;99.90;;;;;;4993541;28;20042;-70
2023/08/28 03:52:56;;;;;;;5.07;3.53;;;18.30;99.90;;;;;;4994927;28;20026;-69
2023/08/28 03:55:22;;;;;;;5.65;3.67;;;18.30;99.90;;;;;;4994039;28;20072;-70
2023/08/28 03:57:48;;;;;;;4.53;3.60;;;18.30;99.90;;;;;;4994924;28;20019;-70
2023/08/28 04:00:14;;;;;;;7.30;4.28;;;18.40;99.90;;;;;;4994671;28;20506;-70
2023/08/28 04:02:41;;;;;;;3.85;3.45;;;18.30;99.90;;;;;;4994842;28;20066;-70
2023/08/28 04:05:07;;;;;;;6.35;4.40;;;18.40;99.90;;;;;;4994651;28;20026;-71
2023/08/28 04:07:33;;;;;;;4.07;3.72;;;18.30;99.90;;;;;;4994701;28;20487;-70
2023/08/28 04:09:59;;;;;;;6.15;4.00;;;18.30;99.90;;;;;;4994682;28;20031;-70
2023/08/28 04:12:25;;;;;;;5.88;4.15;;;18.30;99.90;;;;;;4993249;28;20023;-70
2023/08/28 04:14:50;;;;;;;5.55;3.80;;;18.30;99.90;;;;;;4994600;28;20175;-69
2023/08/28 04:17:16;;;;;;;5.32;4.15;;;18.30;99.90;;;;;;4994538;28;20034;-70
2023/08/28 04:19:42;;;;;;;5.00;4.50;;;18.30;99.90;;;;;;4994169;28;20399;-70
2023/08/28 04:22:08;;;;;;;5.25;3.75;;;18.30;99.90;;;;;;4994449;28;20094;-70
2023/08/28 04:24:34;;;;;;;3.75;3.17;;;18.30;99.90;;;;;;4994296;28;20030;-70
2023/08/28 04:26:59;;;;;;;5.45;3.58;;;18.30;99.90;;;;;;4994457;28;20080;-70
2023/08/28 04:29:25;;;;;;;5.03;3.10;;;18.30;99.90;;;;;;4994152;28;20038;-70
2023/08/28 04:31:52;;;;;;;4.55;2.90;;;18.30;99.90;;;;;;4993234;28;20054;-69
2023/08/28 04:34:18;;;;;;;4.60;3.35;;;18.30;99.90;;;;;;4993785;28;20038;-69
2023/08/28 04:36:43;;;;;;;5.40;3.22;;;18.30;99.90;;;;;;4994346;28;20080;-69
2023/08/28 04:39:09;;;;;;;5.45;3.50;;;18.30;99.90;;;;;;4991827;28;20033;-69
2023/08/28 04:41:35;;;;;;;6.40;3.75;;;18.30;99.90;;;;;;4991785;28;20472;-69
2023/08/28 04:44:00;;;;;;;4.85;3.80;;;18.30;99.90;;;;;;4991409;28;20361;-70
2023/08/28 04:46:27;;;;;;;4.00;3.42;;;18.30;99.90;;;;;;4990526;28;20018;-69
2023/08/28 04:48:53;;;;;;;4.05;3.65;;;18.30;99.90;;;;;;4993487;28;20053;-68
2023/08/28 04:51:19;;;;;;;3.17;2.85;;;18.30;99.90;;;;;;4992219;28;20442;-71
2023/08/28 04:53:44;;;;;;;4.40;2.80;;;18.30;99.90;;;;;;4990570;28;20030;-70
2023/08/28 04:56:10;;;;;;;9.63;3.65;;;18.50;99.90;;;;;;4993601;28;20061;-69
2023/08/28 04:58:36;;;;;;;4.82;3.58;;;18.50;99.90;;;;;;4992656;28;20026;-70
2023/08/28 05:01:01;;;;;;;8.93;3.75;;;18.40;99.90;;;;;;4993409;28;20026;-70
2023/08/28 05:03:27;;;;;;;4.50;4.03;;;18.30;99.90;;;;;;4992413;28;20109;-69
2023/08/28 05:05:53;;;;;;;6.55;3.58;;;18.30;99.90;;;;;;4993134;28;20398;-69
2023/08/28 05:08:20;;;;;;;6.25;3.65;;;18.30;99.90;;;;;;5005178;28;20038;-69
2023/08/28 05:10:45;;;;;;;5.00;3.67;;;18.30;99.90;;;;;;4993204;28;20033;-69
2023/08/28 05:13:11;;;;;;;5.78;3.25;;;18.20;99.90;;;;;;4993725;28;20105;-70
2023/08/28 05:15:36;;;;;;;6.05;3.58;;;18.20;99.90;;;;;;4993226;28;20459;-69
2023/08/28 05:18:03;;;;;;;4.03;3.53;;;18.20;99.90;;;;;;4989644;28;20034;-69
2023/08/28 05:20:29;;;;;;;5.47;3.75;;;18.20;99.90;;;;;;4991567;28;20472;-69
2023/08/28 05:22:54;;;;;;;5.57;3.70;;;18.20;99.90;;;;;;4988733;28;20029;-69
2023/08/28 05:25:21;;;;;;;7.70;3.70;;;18.20;99.90;;;;;;4992924;28;20030;-70
2023/08/28 05:27:46;;;;;;;5.03;3.70;;;18.20;99.90;;;;;;4981575;28;20070;-70
2023/08/28 05:30:12;;;;;;;3.72;3.38;;;18.20;99.90;;;;;;4985714;28;20510;-70
2023/08/28 05:32:38;;;;;;;5.32;4.22;;;18.20;99.90;;;;;;4988455;28;20022;-69
2023/08/28 05:35:05;;;;;;;5.68;3.83;;;18.20;99.90;;;;;;4992698;28;20025;-70
2023/08/28 05:37:31;;;;;;;7.53;4.22;;;18.20;99.90;;;;;;4992186;28;20062;-70
2023/08/28 05:39:57;;;;;;;6.00;3.75;;;18.20;99.90;;;;;;4991603;28;20022;-70
2023/08/28 05:42:23;;;;;;;7.07;3.97;;;18.20;99.90;;;;;;4991709;28;20029;-70
2023/08/28 05:44:48;;;;;;;3.80;2.75;;;18.20;99.90;;;;;;4996476;28;20027;-69
2023/08/28 05:47:14;;;;;;;5.43;3.67;;;18.20;99.90;;;;;;4993281;28;20026;-70
2023/08/28 05:49:40;;;;;;;4.07;3.42;;;18.20;99.90;;;;;;4992728;28;20042;-69
2023/08/28 05:52:06;;;;;;;5.07;3.95;;;18.20;99.90;;;;;;4992708;28;20061;-69
2023/08/28 05:54:31;;;;;;;4.28;3.83;;;18.20;99.90;;;;;;4992908;28;20030;-70
2023/08/28 05:56:57;;;;;;;4.00;3.45;;;18.20;99.90;;;;;;4991604;28;20023;-70
2023/08/28 05:59:23;;;;;;;6.32;3.10;;;18.30;99.90;;;;;;4992706;28;20543;-70
2023/08/28 06:01:48;;;;;;;7.47;3.75;;;18.30;99.90;;;;;;4993315;28;20050;-70
2023/08/28 06:04:14;;;;;;;5.55;2.40;;;18.30;99.90;;;;;;4991483;28;20037;-70
2023/08/28 06:06:39;;;;;;;6.15;4.05;;;18.30;99.90;;;;;;4978595;28;20480;-69
2023/08/28 06:09:06;;;;;;;3.63;2.65;;;18.40;99.90;;;;;;4973645;28;20030;-69
2023/08/28 06:11:32;;;;;;;3.15;1.70;;;18.30;99.90;;;;;;4984244;28;20030;-69
2023/08/28 06:13:59;;;;;;;4.25;1.95;;;18.40;99.90;;;;;;4991964;28;20122;-70
2023/08/28 06:16:25;;;;;;;4.55;2.08;;;18.40;99.90;;;;;;4993106;28;20018;-70
2023/08/28 06:18:51;;;;;;;5.53;3.70;;;18.50;99.90;;;;;;4995019;28;20475;-70
2023/08/28 06:21:16;;;;;;;5.18;3.83;;;18.40;99.90;;;;;;4995672;28;20042;-70
2023/08/28 06:23:42;;;;;;;12.07;5.13;;;18.50;99.90;;;;;;4997521;28;20057;-70
2023/08/28 06:26:08;;;;;;;3.15;2.80;;;18.50;99.90;;;;;;5007869;28;20026;-70
2023/08/28 06:28:34;;;;;;;7.18;4.82;;;18.50;99.90;;;;;;5000641;28;20383;-70
2023/08/28 06:31:01;;;;;;;4.00;2.90;;;18.40;99.90;;;;;;4994464;28;20034;-70
2023/08/28 06:33:27;;;;;;;7.03;5.57;;;18.50;99.90;;;;;;4995603;28;20026;-70
2023/08/28 06:35:52;;;;;;;6.13;4.28;;;18.50;99.90;;;;;;4995175;28;20037;-69
2023/08/28 06:38:18;;;;;;;9.30;3.92;;;18.50;99.90;;;;;;4996284;28;20113;-70
2023/08/28 06:40:49;;;;;;;7.32;3.72;;;18.50;99.90;;;;;;4995100;28;20034;-70
2023/08/28 06:43:15;;;;;;;8.63;5.43;;;18.60;99.90;;;;;;4995191;28;20073;-70
2023/08/28 06:45:40;;;;;;;6.50;5.03;;;18.50;99.90;;;;;;4994962;28;20112;-70
2023/08/28 06:48:06;;;;;;;8.52;5.18;;;18.50;99.90;;;;;;5002952;28;20137;-70
2023/08/28 06:50:34;;;;;;;6.20;2.67;;;18.60;99.90;;;;;;4994313;28;20361;-70
2023/08/28 06:53:00;;;;;;;8.82;3.50;;;18.60;99.90;;;;;;4992532;28;20423;-71
2023/08/28 06:55:26;;;;;;;5.55;3.15;;;18.60;99.90;;;;;;5009294;28;20101;-69
2023/08/28 06:57:51;;;;;;;5.82;3.53;;;18.70;99.90;;;;;;4993907;28;20030;-70
2023/08/28 07:00:17;;;;;;;8.75;3.85;;;18.70;99.90;;;;;;5012386;28;20093;-69
2023/08/28 07:02:43;;;;;;;7.03;3.55;;;18.70;99.90;;;;;;5014849;28;20374;-69
2023/08/28 07:05:08;;;;;;;8.52;4.07;;;18.80;99.90;;;;;;4994432;28;20031;-70
2023/08/28 07:07:34;;;;;;;6.28;2.75;;;18.80;99.90;;;;;;4996006;28;20408;-70
2023/08/28 07:10:00;;;;;;;5.95;2.55;;;18.90;99.90;;;;;;4995448;28;20089;-69
2023/08/28 07:12:25;;;;;;;5.80;2.75;;;18.80;99.90;;;;;;4991633;28;20026;-69
2023/08/28 07:15:12;;;;;;;4.45;2.13;;;18.90;99.90;;;;;;5005835;28;20026;-69
2023/08/28 07:17:37;;;;;;;7.05;2.22;;;18.90;99.90;;;;;;4988602;28;20085;-69
2023/08/28 07:20:04;;;;;;;6.20;1.58;;;19.00;99.90;;;;;;4995594;28;20105;-69
2023/08/28 07:22:30;;;;;;;4.25;1.77;;;19.00;99.90;;;;;;4992628;28;20031;-70
2023/08/28 07:24:56;;;;;;;4.93;3.30;;;19.00;99.90;;;;;;4993585;28;20091;-70
2023/08/28 07:27:22;;;;;;;8.07;3.05;;;19.00;99.90;;;;;;4995322;28;20061;-71
2023/08/28 07:29:48;;;;;;;5.57;2.75;;;19.10;99.90;;;;;;4992893;28;20030;-71
2023/08/28 07:32:13;;;;;;;5.85;2.90;;;19.10;99.90;;;;;;4992351;28;20023;-71
2023/08/28 07:34:39;;;;;;;5.93;2.65;;;19.20;99.90;;;;;;4993559;28;20058;-71
2023/08/28 07:37:05;;;;;;;6.93;2.22;;;19.20;99.90;;;;;;4994115;28;20026;-71
2023/08/28 07:39:31;;;;;;;4.85;1.90;;;19.30;99.90;;;;;;4991803;28;20034;-71
2023/08/28 07:41:57;;;;;;;6.15;1.50;;;19.30;99.90;;;;;;4985564;28;20395;-71
2023/08/28 07:44:23;;;;;;;4.28;1.70;;;19.30;99.90;;;;;;4989038;28;20033;-71
2023/08/28 07:46:49;;;;;;;5.00;1.40;;;19.30;99.90;;;;;;4993628;28;20033;-72
2023/08/28 07:49:15;;;;;;;6.50;1.50;;;19.40;99.90;;;;;;4993779;28;20042;-71
2023/08/28 07:51:40;;;;;;;5.60;1.77;;;19.40;99.90;;;;;;4991838;28;20098;-71
2023/08/28 07:54:06;;;;;;;6.68;1.40;;;19.50;99.90;;;;;;4992256;28;20407;-72
2023/08/28 07:56:32;;;;;;;6.28;1.85;;;19.50;99.90;;;;;;4993999;28;20033;-73
2023/08/28 07:58:58;;;;;;;3.00;1.20;;;19.60;99.90;;;;;;4994450;28;20034;-71
2023/08/28 08:01:23;;;;;;;3.92;1.10;;;19.60;99.90;;;;;;5005637;28;20026;-73
2023/08/28 08:03:49;;;;;;;3.25;0.95;;;19.60;99.90;;;;;;4993996;28;20030;-72
2023/08/28 08:06:16;;;;;;;4.03;1.08;;;19.70;99.90;;;;;;4992662;28;20031;-72
2023/08/28 08:08:45;;;;;;;2.80;1.10;;;19.70;99.90;;;;;;4992604;28;20474;-73
2023/08/28 08:11:11;;;;;;;4.03;1.15;;;19.80;99.90;;;;;;4990400;28;20045;-72
2023/08/28 08:13:37;;;;;;;3.03;0.90;;;19.80;99.90;;;;;;4990316;28;20057;-72
2023/08/28 08:16:04;;;;;;;1.95;0.70;;;19.90;99.90;;;;;;4991690;28;20459;-73
2023/08/28 08:18:30;;;;;;;2.08;0.60;;;19.90;99.90;;;;;;4991520;28;20026;-71
2023/08/28 08:20:56;;;;;;;3.20;0.90;;;19.90;99.90;;;;;;4992452;28;20026;-72
2023/08/28 08:23:22;;;;;;;6.35;1.08;;;20.00;99.90;;;;;;4988635;28;20084;-72
2023/08/28 08:25:48;;;;;;;1.95;0.70;;;20.00;99.90;;;;;;4986503;28;20057;-73
2023/08/28 08:28:17;;;;;;;3.55;0.73;;;20.10;99.90;;;;;;4988050;28;20037;-71
2023/08/28 08:30:42;;;;;;;2.58;0.82;;;20.10;99.90;;;;;;4986755;28;20045;-73
2023/08/28 08:33:08;;;;;;;4.30;0.70;;;20.20;99.90;;;;;;4987658;28;20030;-72
2023/08/28 08:35:37;;;;;;;5.22;0.80;;;20.20;99.90;;;;;;4989226;28;20058;-72
2023/08/28 08:38:03;;;;;;;1.48;0.55;;;20.20;99.90;;;;;;4987943;28;20102;-73
2023/08/28 08:40:28;;;;;;;4.00;1.10;;;20.30;99.70;;;;;;4989008;28;20109;-72
2023/08/28 08:42:54;;;;;;;4.80;1.08;;;20.30;99.70;;;;;;4989465;28;20026;-73
2023/08/28 08:45:27;;;;;;;6.25;0.80;;;20.30;99.60;;;;;;4990623;28;20030;-72
2023/08/28 08:47:56;;;;;;;3.25;0.98;;;20.30;99.50;;;;;;4988472;28;20026;-72
2023/08/28 08:50:24;;;;;;;3.85;1.20;;;20.40;99.30;;;;;;4985207;28;20460;-72
2023/08/28 08:52:50;;;;;;;3.58;0.85;;;20.40;99.00;;;;;;4991707;28;20096;-72
2023/08/28 08:55:36;;;;;;;3.00;1.00;;;20.40;98.80;;;;;;4991926;28;20483;-72
2023/08/28 08:58:06;;;;;;;5.32;1.55;;;20.50;98.40;;;;;;4980841;28;20470;-72
2023/08/28 09:00:38;;;;;;;3.42;1.10;;;20.50;98.10;;;;;;4990583;28;20026;-72
2023/08/28 09:03:05;;;;;;;2.80;0.98;;;20.60;98.00;;;;;;4989955;28;20010;-71
2023/08/28 09:05:32;;;;;;;4.07;1.02;;;20.60;98.00;;;;;;4990904;28;20061;-73
2023/08/28 09:08:00;;;;;;;5.20;0.85;;;20.60;98.40;;;;;;4991227;28;20026;-73
2023/08/28 09:11:00;;;;;;;1.90;0.70;;;20.60;98.20;;;;;;4987158;28;20129;-73
2023/08/28 09:13:26;;;;;;;4.53;1.08;;;20.70;98.40;;;;;;4988040;28;20314;-73
2023/08/28 09:15:52;;;;;;;3.28;1.10;;;20.70;98.50;;;;;;4991098;28;20031;-72
2023/08/28 09:18:19;;;;;;;2.95;0.73;;;20.70;98.00;;;;;;4984902;28;20427;-73
2023/08/28 09:21:22;;;;;;;1.58;0.60;;;20.70;97.70;;;;;;4973066;28;20051;-72
2023/08/28 09:23:52;;;;;;;5.70;1.02;;;20.70;97.70;;;;;;4971335;28;20029;-74
2023/08/28 09:26:20;;;;;;;2.28;1.10;;;20.80;97.60;;;;;;4972532;28;20062;-71
2023/08/28 09:29:03;;;;;;;2.15;1.17;;;20.80;97.70;;;;;;4972299;28;20038;-71
2023/08/28 09:31:34;;;;;;;2.88;1.02;;;20.80;97.60;;;;;;4971903;28;20026;-72
2023/08/28 09:34:01;;;;;;;3.33;0.82;;;20.80;97.30;;;;;;4973349;28;20018;-72
2023/08/28 09:36:27;;;;;;;2.97;0.80;;;20.90;97.60;;;;;;4973920;28;20030;-72
2023/08/28 09:39:00;;;;;;;1.88;0.47;;;20.90;98.00;;;;;;4978832;28;20030;-72
2023/08/28 09:41:46;;;;;;;;;;;20.90;97.80;;;;;;4973505;28;20038;-72
2023/08/28 09:44:13;;;;;;;2.38;0.43;;;21.00;97.80;;;;;;4971931;28;19949;-72
2023/08/28 09:46:41;;;;;;;4.45;0.77;;;20.90;97.90;;;;;;4971944;28;20110;-72
2023/08/28 09:49:08;;;;;;;3.67;0.93;;;21.00;97.20;;;;;;4971063;28;20043;-72
2023/08/28 09:51:47;;;;;;;2.33;0.75;;;21.10;96.60;;;;;;4971965;28;20025;-72
2023/08/28 09:54:15;;;;;;;2.60;0.50;;;21.00;96.50;;;;;;4969553;28;20158;-72
2023/08/28 09:56:42;;;;;;;1.92;0.57;;;21.10;96.70;;;;;;4993952;28;20034;-72
2023/08/28 09:59:10;;;;;;;2.78;0.60;;;21.10;97.20;;;;;;4975094;28;20026;-72
2023/08/28 10:01:37;;;;;;;1.80;0.55;;;21.10;96.40;;;;;;4974088;28;20053;-72
2023/08/28 10:04:07;;;;;;;1.42;0.52;;;21.20;95.70;;;;;;4975496;28;20476;-72
2023/08/28 10:06:50;;;;;;;3.47;0.82;;;21.20;96.40;;;;;;4974875;28;20027;-71
2023/08/28 10:09:18;;;;;;;2.38;0.60;;;21.20;96.70;;;;;;4973268;28;20035;-72
2023/08/28 10:11:45;;;;;;;3.67;1.25;;;21.20;97.30;;;;;;4966791;28;20487;-71
2023/08/28 10:14:12;;;;;;;3.25;1.20;;;21.20;96.70;;;;;;4971958;28;20035;-71
2023/08/28 10:16:44;;;;;;;3.85;1.30;;;21.20;96.60;;;;;;4972509;28;20059;-71
2023/08/28 10:19:23;;;;;;;5.20;1.48;;;21.20;96.50;;;;;;4991276;28;20077;-72
2023/08/28 10:21:50;;;;;;;2.25;0.73;;;21.30;96.70;;;;;;4987208;28;20030;-71
2023/08/28 10:24:17;;;;;;;5.25;1.10;;;21.30;95.70;;;;;;4999393;28;20383;-71
2023/08/28 10:26:44;;;;;;;3.20;0.93;;;21.20;96.00;;;;;;4991681;28;20019;-72
2023/08/28 10:29:10;;;;;;;3.35;1.02;;;21.30;96.20;;;;;;4991488;28;20074;-71
2023/08/28 10:31:38;;;;;;;2.17;0.70;;;21.30;96.10;;;;;;4992655;28;20124;-72
2023/08/28 10:34:06;;;;;;;4.18;0.90;;;21.40;95.40;;;;;;4991692;28;20037;-72
2023/08/28 10:36:32;;;;;;;2.72;1.00;;;21.30;95.50;;;;;;4993623;28;20090;-72
2023/08/28 10:39:01;;;;;;;7.05;1.20;;;21.40;96.20;;;;;;4994749;28;20109;-72
2023/08/28 10:41:28;;;;;;;4.00;1.20;;;21.40;96.30;;;;;;4992213;28;20033;-72
2023/08/28 10:43:56;;;;;;;2.95;0.90;;;21.50;96.70;;;;;;4990433;28;20113;-72
2023/08/28 10:46:22;;;;;;;3.75;1.20;;;21.50;96.90;;;;;;4972444;28;20118;-72
2023/08/28 10:48:55;;;;;;;6.85;1.17;;;21.50;97.40;;;;;;4988147;28;20328;-73
2023/08/28 10:51:23;;;;;;;3.00;0.88;;;21.60;97.80;;;;;;4989192;28;20537;-72
2023/08/28 10:53:51;;;;;;;2.35;0.85;;;21.60;97.50;;;;;;4990041;28;20030;-72
2023/08/28 10:56:17;;;;;;;2.47;0.77;;;21.60;97.70;;;;;;4992748;28;20033;-72
2023/08/28 10:58:43;;;;;;;3.78;0.65;;;21.70;97.70;;;;;;4974996;28;20023;-72
2023/08/28 11:01:14;;;;;;;3.38;1.05;;;21.70;97.70;;;;;;4975896;28;20034;-72
2023/08/28 11:03:58;;;;;;;2.72;1.00;;;21.70;98.10;;;;;;4974165;28;20403;-72
2023/08/28 11:06:43;;;;;;;4.85;1.00;;;21.70;98.10;;;;;;4987185;28;20031;-72
2023/08/28 11:09:30;;;;;;;3.72;0.90;;;21.70;98.40;;;;;;4989188;28;20566;-72
2023/08/28 11:12:01;;;;;;;4.70;1.30;;;21.70;98.60;;;;;;4989798;28;20502;-72
2023/08/28 11:14:31;;;;;;;4.53;1.40;;;21.80;98.50;;;;;;4989553;28;20034;-72
2023/08/28 11:17:12;;;;;;;7.57;1.60;;;21.80;98.50;;;;;;4989018;28;20026;-72
2023/08/28 11:19:55;;;;;;;6.00;2.03;;;21.80;98.80;;;;;;4976961;28;20046;-72
2023/08/28 11:22:31;;;;;;;4.75;0.95;;;21.80;99.10;;;;;;4972637;28;20034;-73
2023/08/28 11:24:58;;;;;;;12.98;2.95;;;21.90;98.70;;;;;;4976895;28;20093;-73
2023/08/28 11:27:44;;;;;;;9.95;2.53;;;21.90;99.40;;;;;;4979251;28;20039;-72
2023/08/28 11:30:12;;;;;;;10.45;2.40;;;21.90;99.30;;;;;;4972955;28;20026;-72
2023/08/28 11:32:41;;;;;;;6.57;2.10;;;21.90;99.30;;;;;;4973849;28;20034;-72
2023/08/28 11:35:09;;;;;;;6.43;2.10;;;21.90;99.30;;;;;;4980132;28;20027;-72
2023/08/28 11:37:41;;;;;;;8.65;2.80;;;21.90;99.60;;;;;;4982867;28;20018;-72
2023/08/28 11:40:09;;;;;;;1.52;0.80;;;22.00;99.40;;;;;;4973819;28;20034;-72
2023/08/28 11:42:36;;;;;;;6.38;1.58;;;22.00;98.30;;;;;;4957302;28;20495;-72
2023/08/28 11:45:04;;;;;;;5.30;1.20;;;22.00;98.40;;;;;;4956398;28;20137;-72
2023/08/28 11:47:32;;;;;;;3.25;1.27;;;22.00;98.70;;;;;;4975274;28;20034;-73
2023/08/28 11:49:59;;;;;;;2.92;0.80;;;22.10;98.10;;;;;;4955474;28;20078;-72
2023/08/28 11:52:25;;;;;;;3.30;1.20;;;22.00;97.80;;;;;;4972515;28;20023;-71
2023/08/28 11:54:57;;;;;;;5.28;1.50;;;22.10;98.00;;;;;;4973137;28;20503;-72
2023/08/28 11:57:25;;;;;;;;;;;22.10;98.50;;;;;;4974306;28;20029;-71
2023/08/28 11:59:51;;;;;;;3.85;1.00;;;22.10;98.40;;;;;;4974175;28;20355;-72
2023/08/28 12:02:19;;;;;;;2.20;0.70;;;22.10;97.80;;;;;;4972754;28;20088;-72
2023/08/28 12:04:50;;;;;;;2.50;0.93;;;22.10;97.00;;;;;;4972712;28;20122;-71
2023/08/28 12:07:24;;;;;;;4.18;1.38;;;22.10;96.70;;;;;;4970240;28;20023;-71
2023/08/28 12:09:52;;;;;;;2.80;1.02;;;22.10;97.60;;;;;;4974670;28;20035;-71
2023/08/28 12:12:19;;;;;;;2.55;0.77;;;22.10;97.90;;;;;;4975692;28;20022;-71
2023/08/28 12:14:47;;;;;;;5.57;1.40;;;22.10;98.10;;;;;;4980175;28;20046;-71
2023/08/28 12:17:18;;;;;;;2.80;0.70;;;22.20;98.80;;;;;;4972464;28;20029;-73
2023/08/28 12:19:44;;;;;;;2.15;0.85;;;22.20;97.90;;;;;;4980453;28;20075;-71
2023/08/28 12:22:11;;;;;;;5.40;1.33;;;22.20;97.60;;;;;;4990534;28;20113;-72
2023/08/28 12:24:41;;;;;;;2.65;0.98;;;22.20;96.70;;;;;;4990881;28;20034;-72
2023/08/28 12:27:08;;;;;;;4.25;1.00;;;22.20;96.80;;;;;;4993280;28;20506;-72
2023/08/28 12:29:34;;;;;;;2.80;0.90;;;22.20;97.40;;;;;;4992340;28;20045;-72
2023/08/28 12:32:05;;;;;;;3.00;0.88;;;22.20;97.30;;;;;;4987794;28;20048;-72
2023/08/28 12:34:32;;;;;;;3.97;0.90;;;22.30;97.90;;;;;;4991007;28;20026;-73
2023/08/28 12:37:10;;;;;;;3.03;0.73;;;22.30;97.60;;;;;;4992920;28;20472;-73
2023/08/28 12:39:35;;;;;;;3.25;0.73;;;22.30;97.10;;;;;;4992033;28;20030;-73
2023/08/28 12:42:02;;;;;;;2.42;0.40;;;22.30;96.80;;;;;;4991436;28;20394;-72
2023/08/28 12:44:29;;;;;;;0.93;0.32;;;22.30;96.50;;;;;;4991835;28;20030;-72
2023/08/28 12:46:56;;;;;;;2.03;0.40;;;22.30;96.30;;;;;;4992797;28;20022;-72
2023/08/28 12:49:22;;;;;;;1.05;0.30;;;22.30;96.20;;;;;;4992184;28;20034;-72
2023/08/28 12:51:49;;;;;;;0.85;0.30;;;22.40;96.00;;;;;;4991176;28;20030;-73